Time;durP1;ratioP1;P1;durP2;ratioP2;P2;SDS_P1;SDS_P2;PMS_P1;PMS_P2;Temp;Humidity;BMP_temperature;BMP_pressure;BME280_temperature;BME280_humidity;BME280_pressure;Samples;Min_cycle;Max_cycle;Signal;HPM_P1;HPM_P2
2021/08/28 00:00:32;;;;;;;;;;;;;;;10.81;85.45;99489.16;5057964;28;19925;-73
2021/08/28 00:03:00;;;;;;;;;;;;;;;10.86;85.65;99487.44;5057813;28;19932;-73
2021/08/28 00:05:31;;;;;;;;;;;;;;;10.96;85.42;99489.94;5057780;28;20383;-74
2021/08/28 00:08:01;;;;;;;;;;;;;;;11.13;85.75;99495.78;5057819;28;19925;-74
2021/08/28 00:10:30;;;;;;;;;;;;;;;11.26;85.68;99496.56;5057815;28;19925;-73
2021/08/28 00:12:59;;;;;;;;;;;;;;;11.31;85.61;99500.78;5057721;28;19925;-74
2021/08/28 00:15:28;;;;;;;;;;;;;;;11.30;85.27;99488.03;5057980;28;19925;-73
2021/08/28 00:17:57;;;;;;;;;;;;;;;11.32;85.21;99488.88;5057575;28;19924;-73
2021/08/28 00:20:25;;;;;;;;;;;;;;;11.23;85.03;99481.25;5057343;28;20432;-72
2021/08/28 00:22:56;;;;;;;;;;;;;;;10.99;84.61;99491.63;5057560;28;19929;-74
2021/08/28 00:25:24;;;;;;;;;;;;;;;10.94;84.79;99501.03;5057435;28;20315;-74
2021/08/28 00:27:53;;;;;;;;;;;;;;;10.90;84.81;99504.44;5057423;28;19951;-73
2021/08/28 00:30:21;;;;;;;;;;;;;;;11.00;85.08;99511.19;5039497;28;19970;-74
2021/08/28 00:32:51;;;;;;;;;;;;;;;11.16;85.28;99502.56;5057359;28;20325;-73
2021/08/28 00:35:19;;;;;;;;;;;;;;;11.19;85.44;99507.69;5057829;28;20286;-74
2021/08/28 00:37:49;;;;;;;;;;;;;;;11.09;85.07;99500.91;5057228;28;20016;-74
2021/08/28 00:40:19;;;;;;;;;;;;;;;10.91;84.83;99493.38;5057238;28;19925;-74
2021/08/28 00:42:50;;;;;;;;;;;;;;;10.74;85.31;99507.06;5039450;28;19925;-73
2021/08/28 00:45:19;;;;;;;;;;;;;;;10.73;85.54;99507.06;5057115;28;19970;-74
2021/08/28 00:47:51;;;;;;;;;;;;;;;10.78;85.35;99502.78;5057032;28;19924;-73
2021/08/28 00:50:21;;;;;;;;;;;;;;;10.86;85.53;99510.41;5057924;28;20020;-73
2021/08/28 00:52:50;;;;;;;;;;;;;;;11.01;85.92;99507.78;5039229;28;19932;-74
2021/08/28 00:55:21;;;;;;;;;;;;;;;10.90;85.48;99506.97;5039167;28;19931;-74
2021/08/28 00:57:50;;;;;;;;;;;;;;;10.84;85.44;99507.03;5039777;28;20317;-74
2021/08/28 01:00:19;;;;;;;;;;;;;;;10.80;85.48;99510.47;5057520;28;20321;-73
2021/08/28 01:02:49;;;;;;;;;;;;;;;10.77;85.37;99496.81;5022412;28;19929;-73
2021/08/28 01:05:21;;;;;;;;;;;;;;;10.93;85.56;99499.31;5038907;28;19925;-74
2021/08/28 01:08:00;;;;;;;;;;;;;;;10.84;85.21;99496.81;5038929;28;20358;-73
2021/08/28 01:10:57;;;;;;;;;;;;;;;10.97;85.45;99498.44;5039282;28;20007;-73
2021/08/28 01:13:38;;;;;;;;;;;;;;;11.09;85.26;99498.38;5056687;28;19924;-74
2021/08/28 01:16:07;;;;;;;;;;;;;;;11.01;85.00;99497.59;5056636;28;19931;-74
2021/08/28 01:18:39;;;;;;;;;;;;;;;10.99;85.12;99497.56;5056520;28;20302;-74
2021/08/28 01:21:14;;;;;;;;;;;;;;;11.15;84.95;99493.25;5056301;28;19925;-74
2021/08/28 01:23:53;;;;;;;;;;;;;;;11.21;84.78;99498.28;5056501;28;20003;-74
2021/08/28 01:26:47;;;;;;;;;;;;;;;11.19;84.76;99502.56;5025467;28;19971;-74
2021/08/28 01:29:19;;;;;;;;;;;;;;;11.27;84.55;99503.38;5038550;28;19925;-73
2021/08/28 01:31:50;;;;;;;;;;;;;;;11.13;84.40;99506.00;5056225;28;19925;-74
2021/08/28 01:34:21;;;;;;;;;;;;;;;11.10;84.52;99500.06;5038559;28;19955;-74
2021/08/28 01:36:51;;;;;;;;;;;;;;;11.20;84.23;99501.72;5038474;28;19932;-73
2021/08/28 01:39:47;;;;;;;;;;;;;;;10.97;84.17;99518.84;5052949;28;20371;-74
2021/08/28 01:42:25;;;;;;;;;;;;;;;10.85;84.27;99524.03;5038421;28;20386;-73
2021/08/28 01:44:57;;;;;;;;;;;;;;;10.81;84.49;99522.34;5038193;28;19932;-74
2021/08/28 01:47:28;;;;;;;;;;;;;;;10.85;84.52;99524.03;5038271;28;20008;-74
2021/08/28 01:49:59;;;;;;;;;;;;;;;10.88;84.55;99529.13;5038379;28;19925;-74
2021/08/28 01:52:28;;;;;;;;;;;;;;;10.84;84.46;99532.56;5038485;28;19996;-73
2021/08/28 01:54:58;;;;;;;;;;;;;;;10.85;85.08;99518.91;5038075;28;19971;-74
2021/08/28 01:57:37;;;;;;;;;;;;;;;10.97;85.00;99516.31;5038097;28;19934;-74
2021/08/28 02:00:30;;;;;;;;;;;;;;;11.13;85.14;99521.31;5053196;28;19971;-74
2021/08/28 02:03:00;;;;;;;;;;;;;;;11.22;85.19;99520.44;5037982;28;19924;-74
2021/08/28 02:05:30;;;;;;;;;;;;;;;11.25;85.46;99510.22;5055485;28;19947;-74
2021/08/28 02:08:10;;;;;;;;;;;;;;;11.31;85.07;99517.81;5037932;28;20016;-74
2021/08/28 02:10:40;;;;;;;;;;;;;;;11.35;85.11;99511.81;5037904;28;19964;-74
2021/08/28 02:13:15;;;;;;;;;;;;;;;11.34;85.07;99512.69;5055555;28;19931;-73
2021/08/28 02:15:48;;;;;;;;;;;;;;;11.37;84.64;99505.03;5037803;28;19929;-74
2021/08/28 02:18:22;;;;;;;;;;;;;;;11.40;84.96;99508.38;5037657;28;19971;-73
2021/08/28 02:21:04;;;;;;;;;;;;;;;11.36;84.86;99501.63;5023637;28;19926;-74
2021/08/28 02:23:38;;;;;;;;;;;;;;;11.32;84.93;99509.31;5015747;28;20393;-74
2021/08/28 02:26:23;;;;;;;;;;;;;;;11.28;84.96;99505.06;5014387;28;20394;-73
2021/08/28 02:28:58;;;;;;;;;;;;;;;11.30;85.19;99508.47;5014423;28;19926;-74
2021/08/28 02:31:31;;;;;;;;;;;;;;;11.38;85.27;99506.69;5015633;28;19926;-74
2021/08/28 02:34:05;;;;;;;;;;;;;;;11.42;85.37;99503.28;5014325;28;20360;-74
2021/08/28 02:36:34;;;;;;;;;;;;;;;11.40;85.43;99504.97;5014495;28;19971;-74
2021/08/28 02:39:03;;;;;;;;;;;;;;;11.33;85.34;99500.78;5015341;28;19977;-74
2021/08/28 02:41:33;;;;;;;;;;;;;;;11.31;85.07;99497.38;5014332;28;19926;-74
2021/08/28 02:44:02;;;;;;;;;;;;;;;11.34;85.49;99494.81;5015264;28;19925;-74
2021/08/28 02:46:33;;;;;;;;;;;;;;;11.34;85.51;99502.47;5013964;28;19925;-74
2021/08/28 02:49:11;;;;;;;;;;;;;;;11.34;85.57;99494.81;5015507;28;19926;-74
2021/08/28 02:51:43;;;;;;;;;;;;;;;11.34;85.77;99490.56;5014093;28;19929;-75
2021/08/28 02:54:16;;;;;;;;;;;;;;;11.34;85.64;99492.25;5013994;28;19925;-74
2021/08/28 02:56:46;;;;;;;;;;;;;;;11.32;85.62;99492.28;5014148;28;20269;-75
2021/08/28 02:59:16;;;;;;;;;;;;;;;11.27;85.76;99494.00;5015048;28;20401;-75
2021/08/28 03:01:46;;;;;;;;;;;;;;;11.23;85.68;99487.22;5013802;28;19949;-75
2021/08/28 03:04:18;;;;;;;;;;;;;;;11.17;85.74;99491.50;5013805;28;19931;-75
2021/08/28 03:06:48;;;;;;;;;;;;;;;11.15;85.83;99480.47;5015171;28;19929;-75
2021/08/28 03:09:19;;;;;;;;;;;;;;;11.11;85.65;99481.34;5014159;28;21583;-75
2021/08/28 03:11:48;;;;;;;;;;;;;;;11.03;85.80;99481.41;5013577;28;19930;-75
2021/08/28 03:14:21;;;;;;;;;;;;;;;11.07;85.77;99489.88;5014719;28;19976;-73
2021/08/28 03:16:52;;;;;;;;;;;;;;;11.08;85.99;99486.47;5013519;28;19952;-73
2021/08/28 03:19:32;;;;;;;;;;;;;;;11.10;86.16;99479.66;5014691;28;19980;-74
2021/08/28 03:22:03;;;;;;;;;;;;;;;11.04;85.92;99490.72;5013656;28;19925;-75
2021/08/28 03:24:34;;;;;;;;;;;;;;;11.01;86.28;99479.72;4998060;28;20402;-75
2021/08/28 03:27:12;;;;;;;;;;;;;;;11.00;86.17;99483.97;5013364;28;19929;-75
2021/08/28 03:29:41;;;;;;;;;;;;;;;10.99;86.60;99483.97;5014506;28;19980;-74
2021/08/28 03:32:12;;;;;;;;;;;;;;;10.97;86.82;99478.00;5013403;28;20326;-74
2021/08/28 03:34:43;;;;;;;;;;;;;;;10.97;86.61;99480.56;5013682;28;20011;-73
2021/08/28 03:37:13;;;;;;;;;;;;;;;10.92;86.61;99472.09;5013609;28;19972;-74
2021/08/28 03:39:43;;;;;;;;;;;;;;;10.91;86.82;99470.41;5013300;28;19933;-73
2021/08/28 03:42:12;;;;;;;;;;;;;;;10.88;86.78;99472.97;5013474;28;20029;-74
2021/08/28 03:44:41;;;;;;;;;;;;;;;10.86;86.86;99469.56;5013139;28;19976;-73
2021/08/28 03:47:16;;;;;;;;;;;;;;;10.88;87.03;99472.97;5014271;28;19926;-74
2021/08/28 03:49:46;;;;;;;;;;;;;;;10.94;87.04;99478.03;5013467;28;20295;-74
2021/08/28 03:52:17;;;;;;;;;;;;;;;10.94;87.40;99475.50;5014208;28;20020;-75
2021/08/28 03:54:45;;;;;;;;;;;;;;;10.99;87.22;99476.31;5013008;28;19968;-74
2021/08/28 03:57:14;;;;;;;;;;;;;;;11.03;87.37;99488.19;5013645;28;20360;-75
2021/08/28 03:59:43;;;;;;;;;;;;;;;11.02;87.25;99487.34;5013297;28;19948;-75
2021/08/28 04:02:19;;;;;;;;;;;;;;;11.01;87.30;99492.47;5013019;28;20008;-75
2021/08/28 04:04:51;;;;;;;;;;;;;;;10.99;87.53;99486.53;5013108;28;20360;-74
2021/08/28 04:07:21;;;;;;;;;;;;;;;10.95;87.32;99484.81;5012817;28;19925;-74
2021/08/28 04:09:50;;;;;;;;;;;;;;;10.95;87.46;99484.81;5012942;28;19925;-75
2021/08/28 04:12:19;;;;;;;;;;;;;;;10.97;87.33;99486.53;5012916;28;19936;-75
2021/08/28 04:14:56;;;;;;;;;;;;;;;11.01;87.44;99487.38;5012946;28;20005;-75
2021/08/28 04:17:30;;;;;;;;;;;;;;;10.98;87.43;99488.22;5012861;28;19929;-75
2021/08/28 04:19:59;;;;;;;;;;;;;;;10.93;87.35;99486.53;5015448;28;19934;-75
2021/08/28 04:22:30;;;;;;;;;;;;;;;10.90;87.30;99486.56;5035966;28;20338;-74
2021/08/28 04:25:10;;;;;;;;;;;;;;;10.97;87.42;99485.66;5054019;28;20370;-74
2021/08/28 04:27:42;;;;;;;;;;;;;;;11.01;87.20;99487.38;5053450;28;20002;-74
2021/08/28 04:30:18;;;;;;;;;;;;;;;11.03;87.16;99493.31;5035877;28;19925;-74
2021/08/28 04:32:48;;;;;;;;;;;;;;;11.06;87.60;99483.09;5053490;28;19925;-74
2021/08/28 04:35:18;;;;;;;;;;;;;;;11.02;87.58;99489.03;5053516;28;19925;-74
2021/08/28 04:37:47;;;;;;;;;;;;;;;10.98;87.37;99484.81;5053357;28;20015;-74
2021/08/28 04:40:17;;;;;;;;;;;;;;;10.93;87.30;99492.50;5035743;28;19975;-74
2021/08/28 04:42:46;;;;;;;;;;;;;;;10.92;87.28;99493.34;5037022;28;20026;-74
2021/08/28 04:45:19;;;;;;;;;;;;;;;10.99;87.32;99489.09;5039837;28;19933;-74
2021/08/28 04:48:01;;;;;;;;;;;;;;;11.04;87.47;99495.84;5057063;28;19928;-74
2021/08/28 04:50:30;;;;;;;;;;;;;;;11.05;87.42;99494.13;5039648;28;19960;-74
2021/08/28 04:52:59;;;;;;;;;;;;;;;11.10;87.32;99500.06;5039282;28;19935;-73
2021/08/28 04:55:30;;;;;;;;;;;;;;;11.11;87.32;99491.56;5039593;28;20362;-73
2021/08/28 04:57:59;;;;;;;;;;;;;;;11.15;87.36;99488.13;5057251;28;20267;-73
2021/08/28 05:00:28;;;;;;;;;;;;;;;11.20;87.66;99496.63;5039194;28;19924;-74
2021/08/28 05:03:19;;;;;;;;;;;;;;;11.18;87.43;99498.34;5049387;28;19925;-74
2021/08/28 05:05:49;;;;;;;;;;;;;;;11.18;87.48;99498.34;5057188;28;20353;-73
2021/08/28 05:08:17;;;;;;;;;;;;;;;11.25;87.54;99500.00;5039158;28;20015;-74
2021/08/28 05:10:46;;;;;;;;;;;;;;;11.29;87.56;99502.50;5039096;28;20402;-73
2021/08/28 05:13:15;;;;;;;;;;;;;;;11.24;87.49;99503.38;5056684;28;20313;-74
2021/08/28 05:15:45;;;;;;;;;;;;;;;11.31;87.38;99500.78;5038797;28;19925;-73
2021/08/28 05:18:13;;;;;;;;;;;;;;;11.36;87.21;99493.09;5056561;28;19947;-75
2021/08/28 05:20:44;;;;;;;;;;;;;;;11.43;87.26;99494.75;5038565;28;20382;-75
2021/08/28 05:23:15;;;;;;;;;;;;;;;11.42;87.29;99490.50;5056429;28;20015;-74
2021/08/28 05:25:56;;;;;;;;;;;;;;;11.40;87.03;99495.59;5056491;28;20443;-75
2021/08/28 05:28:25;;;;;;;;;;;;;;;11.48;87.09;99493.00;5038661;28;20401;-74
2021/08/28 05:30:54;;;;;;;;;;;;;;;11.57;86.93;99498.03;5038492;28;19924;-75
2021/08/28 05:33:25;;;;;;;;;;;;;;;11.58;86.75;99494.63;5038783;28;19951;-75
2021/08/28 05:35:57;;;;;;;;;;;;;;;11.54;86.61;99500.63;5038660;28;20028;-73
2021/08/28 05:38:52;;;;;;;;;;;;;;;11.53;86.42;99500.63;5056114;28;19932;-70
2021/08/28 05:41:20;;;;;;;;;;;;;;;11.56;86.61;99511.69;5056039;28;20444;-72
2021/08/28 05:43:49;;;;;;;;;;;;;;;11.59;86.33;99511.66;5038268;28;19964;-70
2021/08/28 05:46:30;;;;;;;;;;;;;;;11.60;86.32;99508.25;5055873;28;20358;-72
2021/08/28 05:49:06;;;;;;;;;;;;;;;11.66;86.13;99508.19;5038189;28;19932;-73
2021/08/28 05:51:53;;;;;;;;;;;;;;;11.65;85.83;99516.72;5038250;28;19928;-72
2021/08/28 05:54:22;;;;;;;;;;;;;;;11.60;85.56;99515.06;5037068;28;20366;-72
2021/08/28 05:56:54;;;;;;;;;;;;;;;11.62;85.96;99521.88;5055801;28;19971;-73
2021/08/28 05:59:24;;;;;;;;;;;;;;;11.55;85.82;99515.09;5038366;28;19932;-70
2021/08/28 06:01:53;;;;;;;;;;;;;;;11.65;85.96;99516.72;5037899;28;19932;-71
2021/08/28 06:04:24;;;;;;;;;;;;;;;11.78;85.82;99518.34;5038237;28;20326;-72
2021/08/28 06:07:05;;;;;;;;;;;;;;;11.84;85.77;99525.13;5055918;28;19961;-70
2021/08/28 06:09:45;;;;;;;;;;;;;;;11.87;85.45;99531.09;5055637;28;19925;-70
2021/08/28 06:12:25;;;;;;;;;;;;;;;11.97;85.76;99524.19;5055974;28;20387;-70
2021/08/28 06:15:06;;;;;;;;;;;;;;;12.06;85.62;99534.31;5055505;28;19932;-70
2021/08/28 06:17:47;;;;;;;;;;;;;;;12.12;85.55;99533.44;5037769;28;19924;-70
2021/08/28 06:20:16;;;;;;;;;;;;;;;12.14;85.40;99536.81;5037398;28;19929;-72
2021/08/28 06:22:46;;;;;;;;;;;;;;;12.16;85.33;99535.09;5037527;28;20020;-70
2021/08/28 06:25:18;;;;;;;;;;;;;;;12.15;85.12;99541.03;5037682;28;19932;-72
2021/08/28 06:27:47;;;;;;;;;;;;;;;12.09;84.85;99535.13;5055076;28;19951;-73
2021/08/28 06:30:17;;;;;;;;;;;;;;;12.06;85.02;99544.56;5037547;28;20267;-70
2021/08/28 06:32:48;;;;;;;;;;;;;;;12.20;84.85;99541.84;5055208;28;19960;-73
2021/08/28 06:35:18;;;;;;;;;;;;;;;12.18;84.58;99559.78;5037659;28;20035;-70
2021/08/28 06:37:50;;;;;;;;;;;;;;;12.04;84.66;99552.22;5055368;28;19991;-70
2021/08/28 06:40:42;;;;;;;;;;;;;;;12.24;85.02;99553.78;5017432;28;19971;-70
2021/08/28 06:43:34;;;;;;;;;;;;;;;12.35;84.84;99544.28;5008743;28;19931;-74
2021/08/28 06:46:13;;;;;;;;;;;;;;;12.36;84.80;99538.28;5054919;28;19924;-70
2021/08/28 06:48:54;;;;;;;;;;;;;;;12.42;84.53;99539.09;5039091;28;19925;-73
2021/08/28 06:51:33;;;;;;;;;;;;;;;12.48;84.63;99538.16;5055093;28;20349;-73
2021/08/28 06:54:15;;;;;;;;;;;;;;;12.34;84.20;99535.75;5054806;28;19925;-73
2021/08/28 06:56:55;;;;;;;;;;;;;;;12.41;84.56;99542.50;5054911;28;19929;-70
2021/08/28 06:59:34;;;;;;;;;;;;;;;12.64;84.63;99535.41;5054968;28;20024;-70
2021/08/28 07:02:28;;;;;;;;;;;;;;;12.76;84.44;99537.00;5037124;28;20374;-71
2021/08/28 07:05:04;;;;;;;;;;;;;;;12.98;83.79;99540.13;5036756;28;20341;-72
2021/08/28 07:07:42;;;;;;;;;;;;;;;13.18;83.68;99528.78;5054501;28;19932;-70
2021/08/28 07:10:12;;;;;;;;;;;;;;;13.33;83.50;99538.84;5036897;28;19928;-71
2021/08/28 07:12:42;;;;;;;;;;;;;;;13.41;82.70;99541.28;5037028;28;19931;-73
2021/08/28 07:15:11;;;;;;;;;;;;;;;13.67;82.65;99533.19;5036545;28;19947;-71
2021/08/28 07:18:08;;;;;;;;;;;;;;;14.03;82.13;99536.03;5049402;28;19952;-73
2021/08/28 07:20:38;;;;;;;;;;;;;;;14.26;81.33;99535.59;5054219;28;19925;-73
2021/08/28 07:23:07;;;;;;;;;;;;;;;14.21;80.80;99537.41;5036487;28;19940;-73
2021/08/28 07:25:48;;;;;;;;;;;;;;;14.26;80.13;99542.44;5054264;28;20289;-71
2021/08/28 07:28:17;;;;;;;;;;;;;;;14.56;80.11;99540.22;5036364;28;19925;-71
2021/08/28 07:30:56;;;;;;;;;;;;;;;14.58;80.17;99537.63;5054084;28;20390;-72
2021/08/28 07:33:25;;;;;;;;;;;;;;;14.71;79.52;99534.75;5036448;28;19925;-74
2021/08/28 07:35:54;;;;;;;;;;;;;;;15.03;79.47;99534.13;5036211;28;19925;-71
2021/08/28 07:38:23;;;;;;;;;;;;;;;15.28;78.91;99531.88;5036576;28;19974;-71
2021/08/28 07:40:55;;;;;;;;;;;;;;;15.42;78.80;99527.25;5036140;28;20019;-73
2021/08/28 07:43:24;;;;;;;;;;;;;;;15.77;78.25;99532.44;5036232;28;19955;-73
2021/08/28 07:45:59;;;;;;;;;;;;;;;15.65;77.88;99529.31;5036245;28;19979;-73
2021/08/28 07:48:32;;;;;;;;;;;;;;;15.67;77.72;99525.81;5036157;28;19932;-73
2021/08/28 07:51:02;;;;;;;;;;;;;;;15.97;77.34;99525.09;5036447;28;19975;-74
2021/08/28 07:53:31;;;;;;;;;;;;;;;16.28;76.91;99529.44;5036264;28;20341;-74
2021/08/28 07:56:03;;;;;;;;;;;;;;;16.52;75.74;99528.84;5053892;28;20401;-72
2021/08/28 07:58:34;;;;;;;;;;;;;;;16.42;75.34;99517.03;5053799;28;19925;-72
2021/08/28 08:01:04;;;;;;;;;;;;;;;16.53;75.25;99520.22;5036122;28;19924;-71
2021/08/28 08:03:44;;;;;;;;;;;;;;;16.22;75.29;99524.47;5036149;28;19990;-71
2021/08/28 08:06:19;;;;;;;;;;;;;;;16.15;75.34;99522.94;5053889;28;20002;-71
2021/08/28 08:08:58;;;;;;;;;;;;;;;16.31;75.37;99514.78;5054044;28;19932;-74
2021/08/28 08:11:39;;;;;;;;;;;;;;;16.39;75.56;99511.97;5053975;28;19925;-74
2021/08/28 08:14:35;;;;;;;;;;;;;;;16.36;75.67;99507.78;5030149;28;19932;-73
2021/08/28 08:17:14;;;;;;;;;;;;;;;16.44;75.88;99507.53;5036190;28;19932;-71
2021/08/28 08:19:54;;;;;;;;;;;;;;;16.16;75.31;99509.16;5057441;28;19978;-71
2021/08/28 08:22:33;;;;;;;;;;;;;;;16.34;76.41;99495.81;5058054;28;19968;-71
2021/08/28 08:25:13;;;;;;;;;;;;;;;16.40;75.72;99495.63;5057662;28;20382;-73
2021/08/28 08:27:54;;;;;;;;;;;;;;;16.19;75.67;99494.50;5039653;28;19925;-71
2021/08/28 08:30:33;;;;;;;;;;;;;;;16.62;75.39;99494.19;5039765;28;19931;-74
2021/08/28 08:33:12;;;;;;;;;;;;;;;16.98;75.28;99489.72;5039694;28;19939;-72
2021/08/28 08:35:41;;;;;;;;;;;;;;;17.41;74.78;99490.94;5039802;28;19975;-73
2021/08/28 08:38:10;;;;;;;;;;;;;;;17.23;73.91;99488.91;5039762;28;19925;-74
2021/08/28 08:40:39;;;;;;;;;;;;;;;17.47;73.89;99484.72;5039770;28;20024;-72
2021/08/28 08:43:12;;;;;;;;;;;;;;;17.55;73.64;99494.84;5039586;28;19931;-71
2021/08/28 08:45:41;;;;;;;;;;;;;;;17.65;72.95;99491.94;5039469;28;19938;-74
2021/08/28 08:48:11;;;;;;;;;;;;;;;17.93;72.27;99494.44;5039073;28;19963;-72
2021/08/28 08:50:40;;;;;;;;;;;;;;;17.92;71.87;99490.19;5057357;28;19929;-73
2021/08/28 08:53:14;;;;;;;;;;;;;;;17.93;71.52;99497.88;5039522;28;19959;-72
2021/08/28 08:55:50;;;;;;;;;;;;;;;17.60;71.38;99492.97;5039293;28;19929;-74
2021/08/28 08:58:20;;;;;;;;;;;;;;;17.48;72.07;99483.84;5039174;28;19947;-73
2021/08/28 09:01:02;;;;;;;;;;;;;;;17.75;71.95;99483.00;5039188;28;19935;-72
2021/08/28 09:03:38;;;;;;;;;;;;;;;18.13;71.28;99473.09;5057243;28;19982;-74
2021/08/28 09:06:11;;;;;;;;;;;;;;;18.32;70.75;99475.00;5056836;28;19932;-74
2021/08/28 09:08:45;;;;;;;;;;;;;;;18.29;70.02;99480.25;5038983;28;20350;-72
2021/08/28 09:11:21;;;;;;;;;;;;;;;18.35;69.75;99482.66;5056661;28;19931;-72
2021/08/28 09:13:52;;;;;;;;;;;;;;;18.33;69.57;99481.81;5056675;28;19928;-72
2021/08/28 09:16:32;;;;;;;;;;;;;;;18.49;70.15;99483.03;5056686;28;19929;-74
2021/08/28 09:19:01;;;;;;;;;;;;;;;18.58;69.51;99479.25;5038828;28;20067;-72
2021/08/28 09:21:33;;;;;;;;;;;;;;;18.80;68.86;99474.13;5021543;28;20379;-73
2021/08/28 09:24:03;;;;;;;;;;;;;;;18.79;68.20;99481.03;5016764;28;19925;-71
2021/08/28 09:26:34;;;;;;;;;;;;;;;18.83;67.97;99481.78;5016680;28;19932;-74
2021/08/28 09:29:05;;;;;;;;;;;;;;;18.85;67.27;99479.97;5016382;28;19929;-73
2021/08/28 09:31:38;;;;;;;;;;;;;;;18.98;66.99;99478.63;5016636;28;20334;-74
2021/08/28 09:34:15;;;;;;;;;;;;;;;19.15;66.65;99479.66;5015428;28;19976;-72
2021/08/28 09:36:44;;;;;;;;;;;;;;;19.42;65.11;99488.13;5016488;28;19933;-74
2021/08/28 09:39:13;;;;;;;;;;;;;;;19.44;64.11;99483.72;5016525;28;20383;-72
2021/08/28 09:41:42;;;;;;;;;;;;;;;19.63;64.01;99487.25;5016506;28;19926;-71
2021/08/28 09:44:12;;;;;;;;;;;;;;;19.86;63.42;99484.56;5016371;28;19964;-72
2021/08/28 09:46:41;;;;;;;;;;;;;;;19.97;62.33;99482.38;5016442;28;19945;-74
2021/08/28 09:49:10;;;;;;;;;;;;;;;20.14;61.95;99473.03;5016112;28;20379;-73
2021/08/28 09:51:40;;;;;;;;;;;;;;;20.22;61.01;99470.97;5016243;28;19976;-72
2021/08/28 09:54:11;;;;;;;;;;;;;;;20.44;60.33;99472.56;5016277;28;19926;-73
2021/08/28 09:56:41;;;;;;;;;;;;;;;20.65;59.74;99465.59;5016246;28;19932;-72
2021/08/28 09:59:22;;;;;;;;;;;;;;;20.62;58.83;99470.91;5016158;28;19926;-72
2021/08/28 10:01:53;;;;;;;;;;;;;;;20.73;58.42;99460.91;5016268;28;19933;-74
2021/08/28 10:04:22;;;;;;;;;;;;;;;20.77;58.08;99470.25;5016082;28;20433;-72
2021/08/28 10:06:51;;;;;;;;;;;;;;;21.01;58.35;99463.91;5016000;28;20330;-72
2021/08/28 10:09:20;;;;;;;;;;;;;;;21.16;58.46;99468.41;5015828;28;20371;-74
2021/08/28 10:11:49;;;;;;;;;;;;;;;20.90;57.38;99468.75;5015848;28;20379;-74
2021/08/28 10:14:19;;;;;;;;;;;;;;;21.06;57.55;99464.59;5015821;28;19931;-73
2021/08/28 10:16:49;;;;;;;;;;;;;;;21.04;57.88;99453.38;5015824;28;19965;-74
2021/08/28 10:19:19;;;;;;;;;;;;;;;20.84;58.30;99456.06;5015714;28;19932;-74
2021/08/28 10:21:49;;;;;;;;;;;;;;;20.79;58.29;99457.19;5047806;28;19924;-72
2021/08/28 10:24:18;;;;;;;;;;;;;;;20.39;58.78;99458.16;5055348;28;19964;-74
2021/08/28 10:26:47;;;;;;;;;;;;;;;20.45;59.06;99463.03;5055284;28;19978;-74
2021/08/28 10:29:16;;;;;;;;;;;;;;;20.41;58.70;99456.31;5055483;28;19975;-74
2021/08/28 10:31:47;;;;;;;;;;;;;;;20.55;58.37;99454.81;5055079;28;19964;-74
2021/08/28 10:34:16;;;;;;;;;;;;;;;20.61;58.78;99458.88;5037354;28;19925;-71
2021/08/28 10:36:46;;;;;;;;;;;;;;;20.87;58.61;99450.75;5055048;28;19974;-73
2021/08/28 10:39:15;;;;;;;;;;;;;;;21.01;57.91;99452.69;5055030;28;19931;-73
2021/08/28 10:41:43;;;;;;;;;;;;;;;20.73;57.95;99448.78;5054626;28;20355;-73
2021/08/28 10:44:12;;;;;;;;;;;;;;;21.38;58.04;99448.31;5054816;28;19929;-72
2021/08/28 10:46:43;;;;;;;;;;;;;;;21.55;57.25;99449.22;5037099;28;19925;-74
2021/08/28 10:49:22;;;;;;;;;;;;;;;21.88;57.04;99450.22;5037166;28;20019;-71
2021/08/28 10:52:07;;;;;;;;;;;;;;;21.74;56.50;99443.06;5037140;28;20302;-71
2021/08/28 10:54:41;;;;;;;;;;;;;;;21.91;56.22;99443.09;5037029;28;19925;-71
2021/08/28 10:57:19;;;;;;;;;;;;;;;22.01;55.86;99433.06;5054715;28;19931;-72
2021/08/28 10:59:58;;;;;;;;;;;;;;;21.61;56.56;99438.56;5055096;28;19971;-73
2021/08/28 11:02:42;;;;;;;;;;;;;;;21.77;57.34;99434.25;5054501;28;20015;-71
2021/08/28 11:05:18;;;;;;;;;;;;;;;21.57;57.71;99437.84;5054349;28;20015;-73
2021/08/28 11:07:47;;;;;;;;;;;;;;;21.57;57.58;99448.22;5054463;28;19960;-72
2021/08/28 11:10:19;;;;;;;;;;;;;;;21.86;56.32;99439.03;5054366;28;19925;-72
2021/08/28 11:12:51;;;;;;;;;;;;;;;22.10;55.83;99440.38;5054428;28;20024;-71
2021/08/28 11:15:31;;;;;;;;;;;;;;;22.21;55.69;99440.69;5054407;28;19929;-71
2021/08/28 11:18:01;;;;;;;;;;;;;;;22.44;54.19;99429.91;5054404;28;19924;-71
2021/08/28 11:20:34;;;;;;;;;;;;;;;22.84;53.69;99441.66;5054086;28;20353;-74
2021/08/28 11:23:04;;;;;;;;;;;;;;;22.74;53.08;99429.22;5054641;28;19932;-72
2021/08/28 11:25:40;;;;;;;;;;;;;;;22.96;52.51;99429.72;5054290;28;19925;-72
2021/08/28 11:28:09;;;;;;;;;;;;;;;22.94;52.45;99426.38;5054165;28;19924;-73
2021/08/28 11:30:53;;;;;;;;;;;;;;;22.45;52.19;99423.78;5054249;28;20266;-71
2021/08/28 11:33:23;;;;;;;;;;;;;;;21.57;52.59;99421.44;5054144;28;20345;-73
2021/08/28 11:35:53;;;;;;;;;;;;;;;21.26;54.43;99412.53;5054124;28;19932;-73
2021/08/28 11:38:33;;;;;;;;;;;;;;;21.40;54.01;99404.09;5053955;28;19928;-72
2021/08/28 11:41:06;;;;;;;;;;;;;;;22.35;52.82;99401.78;5054346;28;19925;-71
2021/08/28 11:43:35;;;;;;;;;;;;;;;22.74;51.55;99409.25;5054057;28;19932;-71
2021/08/28 11:46:05;;;;;;;;;;;;;;;23.09;51.42;99415.09;5053997;28;20023;-73
2021/08/28 11:48:34;;;;;;;;;;;;;;;23.34;50.67;99426.66;5054200;28;19978;-74
2021/08/28 11:51:07;;;;;;;;;;;;;;;23.57;49.88;99427.13;5053823;28;20027;-72
2021/08/28 11:53:38;;;;;;;;;;;;;;;23.49;49.20;99424.97;5054279;28;20015;-73
2021/08/28 11:56:09;;;;;;;;;;;;;;;23.44;48.65;99429.63;5054022;28;19956;-72
2021/08/28 11:58:48;;;;;;;;;;;;;;;23.53;48.83;99423.88;5053745;28;19975;-73
2021/08/28 12:01:28;;;;;;;;;;;;;;;23.46;49.43;99419.94;5036112;28;19924;-74
2021/08/28 12:03:59;;;;;;;;;;;;;;;23.00;50.19;99421.66;5053737;28;19924;-73
2021/08/28 12:06:29;;;;;;;;;;;;;;;23.34;49.66;99412.81;5053836;28;20355;-72
2021/08/28 12:08:58;;;;;;;;;;;;;;;23.66;48.69;99417.00;5053735;28;19986;-73
2021/08/28 12:11:28;;;;;;;;;;;;;;;22.93;49.62;99414.28;5054072;28;20397;-73
2021/08/28 12:14:01;;;;;;;;;;;;;;;22.08;50.84;99408.44;5053673;28;19925;-72
2021/08/28 12:16:31;;;;;;;;;;;;;;;21.75;52.07;99415.31;5035789;28;19928;-74
2021/08/28 12:19:04;;;;;;;;;;;;;;;21.73;52.53;99411.97;5035733;28;19925;-72
2021/08/28 12:21:34;;;;;;;;;;;;;;;21.90;52.32;99409.38;5053404;28;20378;-72
2021/08/28 12:24:14;;;;;;;;;;;;;;;22.42;52.55;99397.94;5053616;28;19933;-72
2021/08/28 12:26:44;;;;;;;;;;;;;;;22.29;53.02;99401.28;5054018;28;19925;-71
2021/08/28 12:29:20;;;;;;;;;;;;;;;21.95;53.39;99402.19;5053562;28;19929;-71
2021/08/28 12:31:53;;;;;;;;;;;;;;;21.53;53.97;99404.31;5053585;28;19925;-72
2021/08/28 12:34:22;;;;;;;;;;;;;;;21.09;54.75;99404.72;5035691;28;19925;-71
2021/08/28 12:36:51;;;;;;;;;;;;;;;20.95;55.35;99401.06;5035478;28;19931;-72
2021/08/28 12:39:19;;;;;;;;;;;;;;;20.93;55.55;99395.09;5053464;28;19932;-73
2021/08/28 12:41:49;;;;;;;;;;;;;;;21.17;55.18;99392.22;5053380;28;19931;-71
2021/08/28 12:44:18;;;;;;;;;;;;;;;21.42;54.71;99393.63;5053545;28;19963;-73
2021/08/28 12:46:49;;;;;;;;;;;;;;;21.17;54.59;99393.97;5053359;28;19932;-71
2021/08/28 12:49:20;;;;;;;;;;;;;;;20.87;56.08;99393.66;5053713;28;20275;-71
2021/08/28 12:51:56;;;;;;;;;;;;;;;20.63;57.01;99398.25;5053155;28;19968;-71
2021/08/28 12:54:26;;;;;;;;;;;;;;;20.33;57.82;99398.78;5053300;28;19928;-72
2021/08/28 12:57:02;;;;;;;;;;;;;;;20.12;58.73;99402.28;5053608;28;19978;-72
2021/08/28 12:59:31;;;;;;;;;;;;;;;20.01;58.88;99398.41;5053350;28;19925;-73
2021/08/28 13:02:00;;;;;;;;;;;;;;;20.01;59.20;99397.59;5053211;28;19978;-71
2021/08/28 13:04:30;;;;;;;;;;;;;;;19.83;59.47;99404.41;5055270;28;20279;-71
2021/08/28 13:07:08;;;;;;;;;;;;;;;19.82;59.91;99400.13;5057126;28;19925;-72
2021/08/28 13:09:47;;;;;;;;;;;;;;;19.82;60.27;99405.28;5056835;28;19940;-74
2021/08/28 13:12:17;;;;;;;;;;;;;;;19.80;60.16;99401.94;5056965;28;19924;-72
2021/08/28 13:14:50;;;;;;;;;;;;;;;20.10;59.25;99409.28;5057372;28;19970;-72
2021/08/28 13:17:25;;;;;;;;;;;;;;;20.15;59.06;99403.00;5056540;28;19931;-71